Time;durP1;ratioP1;P1;durP2;ratioP2;P2;SDS_P1;SDS_P2;PMS_P1;PMS_P2;Temp;Humidity;BMP_temperature;BMP_pressure;BME280_temperature;BME280_humidity;BME280_pressure;Samples;Min_cycle;Max_cycle;Signal;HPM_P1;HPM_P2
2021/11/24 00:00:56;;;;;;;6.63;3.15;;;7.50;71.20;;;;;;5011311;28;20071;-69
2021/11/24 00:03:22;;;;;;;6.32;2.92;;;7.50;70.80;;;;;;5008341;28;20061;-69
2021/11/24 00:05:48;;;;;;;5.95;3.00;;;7.50;71.20;;;;;;5013099;28;20317;-69
2021/11/24 00:08:14;;;;;;;6.60;2.90;;;7.40;71.10;;;;;;5005226;28;20045;-68
2021/11/24 00:10:39;;;;;;;5.43;3.25;;;7.40;71.10;;;;;;5013983;28;20030;-69
2021/11/24 00:13:05;;;;;;;6.57;3.30;;;7.40;71.60;;;;;;5014024;28;20056;-69
2021/11/24 00:15:33;;;;;;;5.78;3.08;;;7.30;71.40;;;;;;5014611;28;20435;-70
2021/11/24 00:17:59;;;;;;;6.70;3.20;;;7.20;72.00;;;;;;4994217;28;20479;-69
2021/11/24 00:20:24;;;;;;;7.13;3.70;;;7.20;71.70;;;;;;5013969;28;20105;-69
2021/11/24 00:22:50;;;;;;;5.15;3.03;;;7.20;72.00;;;;;;5013368;28;20030;-69
2021/11/24 00:25:16;;;;;;;5.20;2.88;;;7.20;72.30;;;;;;5010973;28;20034;-68
2021/11/24 00:27:42;;;;;;;5.28;3.05;;;7.10;72.20;;;;;;5008041;28;20036;-69
2021/11/24 00:30:08;;;;;;;7.40;3.50;;;7.20;72.10;;;;;;5009887;28;20022;-68
2021/11/24 00:32:34;;;;;;;8.20;3.47;;;7.10;72.70;;;;;;4993850;28;20033;-69
2021/11/24 00:35:01;;;;;;;5.88;3.00;;;7.10;73.90;;;;;;5011557;28;20030;-69
2021/11/24 00:37:28;;;;;;;5.55;3.45;;;7.10;72.70;;;;;;5011670;28;20025;-69
2021/11/24 00:39:54;;;;;;;6.22;3.17;;;7.00;73.00;;;;;;5011884;28;20022;-68
2021/11/24 00:42:20;;;;;;;6.00;3.55;;;7.00;73.20;;;;;;5011617;28;20034;-68
2021/11/24 00:44:46;;;;;;;6.50;3.72;;;7.00;73.70;;;;;;5015537;28;20072;-69
2021/11/24 00:47:12;;;;;;;7.07;3.55;;;7.00;73.10;;;;;;5011497;28;20569;-69
2021/11/24 00:49:39;;;;;;;4.97;3.35;;;6.90;73.20;;;;;;5011363;28;20026;-69
2021/11/24 00:52:06;;;;;;;5.28;3.15;;;6.90;73.30;;;;;;4993985;28;20410;-69
2021/11/24 00:54:32;;;;;;;7.05;3.47;;;6.90;73.30;;;;;;4994500;28;20033;-68
2021/11/24 00:56:58;;;;;;;6.38;3.55;;;6.90;73.00;;;;;;5013998;28;20026;-69
2021/11/24 00:59:24;;;;;;;7.47;3.38;;;6.90;73.40;;;;;;5012884;28;20026;-68
2021/11/24 01:01:50;;;;;;;6.55;3.40;;;6.90;73.00;;;;;;5014199;28;20034;-69
2021/11/24 01:04:15;;;;;;;6.45;3.72;;;6.90;73.30;;;;;;5013909;28;20025;-68
2021/11/24 01:06:41;;;;;;;5.70;3.65;;;6.90;73.70;;;;;;5004737;28;20049;-69
2021/11/24 01:09:07;;;;;;;7.28;3.45;;;6.90;73.50;;;;;;5013369;28;20454;-68
2021/11/24 01:11:32;;;;;;;8.30;3.80;;;6.80;73.30;;;;;;5012786;28;20028;-69
2021/11/24 01:13:59;;;;;;;7.57;3.95;;;6.80;73.40;;;;;;5011097;28;20017;-68
2021/11/24 01:16:24;;;;;;;6.28;3.42;;;6.80;73.30;;;;;;5011290;28;20033;-68
2021/11/24 01:18:50;;;;;;;6.35;3.92;;;6.80;73.80;;;;;;5011002;28;20030;-68
2021/11/24 01:21:16;;;;;;;6.30;3.75;;;6.80;74.10;;;;;;5012586;28;20038;-69
2021/11/24 01:23:42;;;;;;;5.78;3.72;;;6.70;73.30;;;;;;5014451;28;20557;-69
2021/11/24 01:26:08;;;;;;;7.75;3.60;;;6.70;74.30;;;;;;5010602;28;20038;-69
2021/11/24 01:28:34;;;;;;;7.90;4.20;;;6.70;73.80;;;;;;5011010;28;20022;-69
2021/11/24 01:31:00;;;;;;;6.95;4.18;;;6.70;74.20;;;;;;5011068;28;20104;-69
2021/11/24 01:33:25;;;;;;;7.88;4.35;;;6.70;73.70;;;;;;5010875;28;20105;-69
2021/11/24 01:35:51;;;;;;;5.97;3.72;;;6.80;74.40;;;;;;5013615;28;20034;-69
2021/11/24 01:38:17;;;;;;;6.78;4.00;;;6.70;73.90;;;;;;5011268;28;20050;-69
2021/11/24 01:40:42;;;;;;;7.45;3.95;;;6.80;73.80;;;;;;5011071;28;20022;-69
2021/11/24 01:43:08;;;;;;;7.45;4.07;;;6.70;73.50;;;;;;5010819;28;20029;-69
2021/11/24 01:45:34;;;;;;;7.30;3.70;;;6.70;73.80;;;;;;5009550;28;20046;-69
2021/11/24 01:48:01;;;;;;;8.52;4.80;;;6.60;73.70;;;;;;5013059;28;20077;-69
2021/11/24 01:50:27;;;;;;;7.90;4.30;;;6.60;74.20;;;;;;5011509;28;20030;-69
2021/11/24 01:52:53;;;;;;;7.03;4.03;;;6.60;74.40;;;;;;5010100;28;20462;-69
2021/11/24 01:55:20;;;;;;;7.20;4.22;;;6.60;74.30;;;;;;5010367;28;20030;-69
2021/11/24 01:57:48;;;;;;;6.45;4.05;;;6.60;74.00;;;;;;5010462;28;20026;-69
2021/11/24 02:00:17;;;;;;;7.90;4.40;;;6.60;74.10;;;;;;5011932;28;20073;-69
2021/11/24 02:02:43;;;;;;;8.20;4.80;;;6.50;73.90;;;;;;4996755;28;20033;-69
2021/11/24 02:05:09;;;;;;;8.65;4.50;;;6.50;74.10;;;;;;5009847;28;20418;-69
2021/11/24 02:07:34;;;;;;;8.98;5.13;;;6.50;74.20;;;;;;5009802;28;20527;-69
2021/11/24 02:10:00;;;;;;;7.32;4.00;;;6.40;74.30;;;;;;5009892;28;20108;-69
2021/11/24 02:12:26;;;;;;;7.30;4.60;;;6.40;74.60;;;;;;5010085;28;20038;-69
2021/11/24 02:14:51;;;;;;;7.57;4.60;;;6.40;74.30;;;;;;5013359;28;20451;-69
2021/11/24 02:17:17;;;;;;;9.32;4.80;;;6.40;75.10;;;;;;4993128;28;20076;-69
2021/11/24 02:19:44;;;;;;;6.28;4.30;;;6.40;74.70;;;;;;5009350;28;20057;-69
2021/11/24 02:22:10;;;;;;;8.77;4.72;;;6.40;75.30;;;;;;4994400;28;20025;-69
2021/11/24 02:24:37;;;;;;;7.78;4.78;;;6.40;74.90;;;;;;5009989;28;20081;-69
2021/11/24 02:27:05;;;;;;;7.30;4.60;;;6.40;75.50;;;;;;4994674;28;20536;-69
2021/11/24 02:29:32;;;;;;;9.75;5.10;;;6.40;74.60;;;;;;5011338;28;20407;-69
2021/11/24 02:32:00;;;;;;;7.03;4.43;;;6.40;74.80;;;;;;4992141;28;20034;-69
2021/11/24 02:34:26;;;;;;;7.32;4.45;;;6.40;73.80;;;;;;5009238;28;20024;-69
2021/11/24 02:36:53;;;;;;;9.10;5.32;;;6.40;74.50;;;;;;5009536;28;20022;-69
2021/11/24 02:39:19;;;;;;;8.98;5.60;;;6.30;74.90;;;;;;4994801;28;20018;-69
2021/11/24 02:41:44;;;;;;;8.07;5.15;;;6.30;74.30;;;;;;5013116;28;20030;-69
2021/11/24 02:44:18;;;;;;;7.30;4.57;;;6.30;74.70;;;;;;5009481;28;20518;-68
2021/11/24 02:46:44;;;;;;;9.82;4.95;;;6.30;74.60;;;;;;5009482;28;20037;-69
2021/11/24 02:49:10;;;;;;;8.63;5.18;;;6.20;74.60;;;;;;5008952;28;20025;-69
2021/11/24 02:51:37;;;;;;;7.70;4.75;;;6.20;74.50;;;;;;4992215;28;20415;-69
2021/11/24 02:54:03;;;;;;;8.23;5.13;;;6.20;74.70;;;;;;5011934;28;20018;-68
2021/11/24 02:56:28;;;;;;;9.20;4.97;;;6.20;75.00;;;;;;5010402;28;20103;-69
2021/11/24 02:58:54;;;;;;;9.32;5.05;;;6.10;75.20;;;;;;5009071;28;20022;-69
2021/11/24 03:01:20;;;;;;;9.02;5.10;;;6.10;75.30;;;;;;5012072;28;20033;-69
2021/11/24 03:03:45;;;;;;;8.48;4.82;;;6.10;75.40;;;;;;5008975;28;20482;-69
2021/11/24 03:06:11;;;;;;;8.20;5.40;;;6.10;75.50;;;;;;5010528;28;20053;-69
2021/11/24 03:08:37;;;;;;;7.95;4.97;;;6.10;75.50;;;;;;5011533;28;20037;-68
2021/11/24 03:11:02;;;;;;;8.68;4.95;;;6.10;75.90;;;;;;5008851;28;20022;-68
2021/11/24 03:13:28;;;;;;;7.53;5.10;;;6.10;76.20;;;;;;5008991;28;20097;-69
2021/11/24 03:15:54;;;;;;;11.25;5.75;;;6.10;75.70;;;;;;5008899;28;20021;-68
2021/11/24 03:18:19;;;;;;;7.88;5.22;;;6.10;76.20;;;;;;4991310;28;20030;-69
2021/11/24 03:20:45;;;;;;;8.18;5.22;;;6.10;75.90;;;;;;5012445;28;20030;-69
2021/11/24 03:23:11;;;;;;;8.23;5.63;;;6.10;75.40;;;;;;5010851;28;20030;-69
2021/11/24 03:25:36;;;;;;;9.23;5.35;;;6.10;75.80;;;;;;5008578;28;20470;-69
2021/11/24 03:28:02;;;;;;;9.10;5.50;;;6.10;75.80;;;;;;5009141;28;20376;-69
2021/11/24 03:30:29;;;;;;;9.43;5.43;;;6.10;75.30;;;;;;4991546;28;20026;-69
2021/11/24 03:32:56;;;;;;;9.30;6.10;;;6.10;75.30;;;;;;5011068;28;20026;-69
2021/11/24 03:35:24;;;;;;;8.27;5.50;;;6.10;75.50;;;;;;5011088;28;20020;-69
2021/11/24 03:37:52;;;;;;;9.38;5.70;;;6.10;75.90;;;;;;5008622;28;20030;-69
2021/11/24 03:40:19;;;;;;;7.30;5.28;;;6.10;75.50;;;;;;4991136;28;20034;-69
2021/11/24 03:42:46;;;;;;;8.70;5.78;;;6.10;75.40;;;;;;5008583;28;20486;-69
2021/11/24 03:45:14;;;;;;;8.75;5.82;;;6.00;75.90;;;;;;5009747;28;20124;-69
2021/11/24 03:47:41;;;;;;;8.15;5.47;;;6.00;75.80;;;;;;5011092;28;20022;-69
2021/11/24 03:50:08;;;;;;;10.25;6.10;;;6.10;75.70;;;;;;5008259;28;20030;-69
2021/11/24 03:52:34;;;;;;;8.10;5.65;;;6.10;75.50;;;;;;5008169;28;20036;-68
2021/11/24 03:55:00;;;;;;;7.25;5.22;;;6.00;75.50;;;;;;4991986;28;20105;-69
2021/11/24 03:57:25;;;;;;;9.40;5.97;;;6.10;75.60;;;;;;5008387;28;20105;-69
2021/11/24 03:59:51;;;;;;;9.20;5.60;;;6.10;75.40;;;;;;4993731;28;20451;-69
2021/11/24 04:02:17;;;;;;;9.38;5.95;;;6.10;75.00;;;;;;5010408;28;20530;-69
2021/11/24 04:04:43;;;;;;;9.82;5.70;;;6.10;75.10;;;;;;5007752;28;20096;-69
2021/11/24 04:07:08;;;;;;;9.23;5.25;;;6.10;75.30;;;;;;5008831;28;20511;-68
2021/11/24 04:09:34;;;;;;;9.07;6.18;;;6.00;75.20;;;;;;5012395;28;20019;-69
2021/11/24 04:12:00;;;;;;;9.65;6.03;;;6.10;75.20;;;;;;5014450;28;20022;-69
2021/11/24 04:14:26;;;;;;;8.63;6.05;;;6.00;75.10;;;;;;4995643;28;20418;-69
2021/11/24 04:16:53;;;;;;;12.00;6.57;;;6.00;75.60;;;;;;5012161;28;20050;-69
2021/11/24 04:19:18;;;;;;;9.95;6.38;;;5.90;75.50;;;;;;5012253;28;20022;-69
2021/11/24 04:21:44;;;;;;;10.73;6.20;;;5.90;75.90;;;;;;4996717;28;20022;-69
2021/11/24 04:24:10;;;;;;;8.43;6.15;;;5.90;75.70;;;;;;5013414;28;20073;-69
2021/11/24 04:26:36;;;;;;;9.45;6.20;;;5.90;76.40;;;;;;5014085;28;20048;-69
2021/11/24 04:29:02;;;;;;;9.35;6.25;;;5.80;76.40;;;;;;5012185;28;20402;-69
2021/11/24 04:31:27;;;;;;;9.18;6.22;;;5.80;77.00;;;;;;4994446;28;20475;-69
2021/11/24 04:33:53;;;;;;;9.23;6.15;;;5.80;76.50;;;;;;5011915;28;20049;-69
2021/11/24 04:36:19;;;;;;;9.75;6.35;;;5.80;76.30;;;;;;5012180;28;20034;-69
2021/11/24 04:38:45;;;;;;;12.43;6.55;;;5.80;76.40;;;;;;5015098;28;20021;-69
2021/11/24 04:41:10;;;;;;;8.82;5.93;;;5.90;76.20;;;;;;5011724;28;20045;-68
2021/11/24 04:43:43;;;;;;;8.52;6.22;;;5.80;76.00;;;;;;5011611;28;20022;-69
2021/11/24 04:46:09;;;;;;;10.63;6.43;;;5.80;76.50;;;;;;5011145;28;20042;-69
2021/11/24 04:48:36;;;;;;;9.05;6.13;;;5.80;76.50;;;;;;4994957;28;20450;-69
2021/11/24 04:51:02;;;;;;;9.15;6.70;;;5.80;76.40;;;;;;5013832;28;20052;-68
2021/11/24 04:53:28;;;;;;;10.32;6.60;;;5.80;76.60;;;;;;5012849;28;20487;-69
2021/11/24 04:55:53;;;;;;;10.95;6.65;;;5.80;76.40;;;;;;4994355;28;20505;-69
2021/11/24 04:58:19;;;;;;;8.88;5.85;;;5.80;76.40;;;;;;5011265;28;20445;-68
2021/11/24 05:00:45;;;;;;;8.52;6.20;;;5.70;76.40;;;;;;5014084;28;20041;-68
2021/11/24 05:03:11;;;;;;;8.00;6.03;;;5.80;76.80;;;;;;5013177;28;20105;-68
2021/11/24 05:05:37;;;;;;;8.88;5.93;;;5.70;76.60;;;;;;5012994;28;20053;-68
2021/11/24 05:08:03;;;;;;;10.82;6.75;;;5.80;76.90;;;;;;5010751;28;20038;-69
2021/11/24 05:10:29;;;;;;;9.13;6.35;;;5.70;76.50;;;;;;5011305;28;20478;-68
2021/11/24 05:12:55;;;;;;;10.43;6.82;;;5.60;76.80;;;;;;5011079;28;20024;-68
2021/11/24 05:15:27;;;;;;;9.70;6.57;;;5.70;77.20;;;;;;5011088;28;20041;-68
2021/11/24 05:18:00;;;;;;;9.15;6.47;;;5.70;76.90;;;;;;5014536;28;20025;-68
2021/11/24 05:20:28;;;;;;;10.00;6.05;;;5.60;77.20;;;;;;5012299;28;20065;-68
2021/11/24 05:22:55;;;;;;;11.38;6.95;;;5.60;76.70;;;;;;5010890;28;20028;-68
2021/11/24 05:25:21;;;;;;;9.93;6.60;;;5.60;77.20;;;;;;5010766;28;20064;-68
2021/11/24 05:27:47;;;;;;;11.75;6.80;;;5.60;77.10;;;;;;5010489;28;20030;-68
2021/11/24 05:30:13;;;;;;;12.07;8.05;;;5.50;77.20;;;;;;5012447;28;20018;-68
2021/11/24 05:32:39;;;;;;;10.85;6.80;;;5.50;77.90;;;;;;5013694;28;20118;-68
2021/11/24 05:35:05;;;;;;;9.48;6.70;;;5.50;77.60;;;;;;4993868;28;20105;-68
2021/11/24 05:37:32;;;;;;;10.13;6.68;;;5.50;78.30;;;;;;5010852;28;20037;-68
2021/11/24 05:39:58;;;;;;;10.20;7.05;;;5.50;78.20;;;;;;4993797;28;20052;-68
2021/11/24 05:42:26;;;;;;;10.77;7.38;;;5.50;78.00;;;;;;5010758;28;20045;-68
2021/11/24 05:45:01;;;;;;;10.15;6.40;;;5.50;77.80;;;;;;5013801;28;20092;-68
2021/11/24 05:50:11;;;;;;;10.00;6.32;;;5.50;78.10;;;;;;5010379;28;20521;-68
2021/11/24 05:52:37;;;;;;;12.25;7.40;;;5.50;78.10;;;;;;5010597;28;20049;-68
2021/11/24 05:55:04;;;;;;;9.75;6.70;;;5.40;78.10;;;;;;5010551;28;20446;-69
2021/11/24 05:57:30;;;;;;;11.07;7.72;;;5.50;78.50;;;;;;5010242;28;20054;-68
2021/11/24 05:59:55;;;;;;;10.25;6.88;;;5.50;78.20;;;;;;5013337;28;20034;-67
2021/11/24 06:02:21;;;;;;;10.20;6.97;;;5.50;78.30;;;;;;5014371;28;20096;-68
2021/11/24 06:04:46;;;;;;;10.02;6.47;;;5.50;78.30;;;;;;5010716;28;20471;-68
2021/11/24 06:07:12;;;;;;;10.88;6.90;;;5.50;78.30;;;;;;5010170;28;20053;-67
2021/11/24 06:09:38;;;;;;;9.75;6.43;;;5.50;78.80;;;;;;5010571;28;20105;-68
2021/11/24 06:12:04;;;;;;;10.52;6.88;;;5.50;78.20;;;;;;5012387;28;20441;-68
2021/11/24 06:14:29;;;;;;;12.65;7.75;;;5.50;78.60;;;;;;4994133;28;20038;-68
2021/11/24 06:16:55;;;;;;;10.10;6.65;;;5.50;78.30;;;;;;4992806;28;20022;-68
2021/11/24 06:19:20;;;;;;;10.27;7.20;;;5.50;78.60;;;;;;5010063;28;20037;-68
2021/11/24 06:21:47;;;;;;;12.05;7.35;;;5.40;78.30;;;;;;5010311;28;20014;-68
2021/11/24 06:24:13;;;;;;;12.75;8.05;;;5.40;78.20;;;;;;5011035;28;20026;-69
2021/11/24 06:26:39;;;;;;;10.05;6.68;;;5.40;78.50;;;;;;4994651;28;20042;-68
2021/11/24 06:29:04;;;;;;;10.48;7.00;;;5.30;78.60;;;;;;5009546;28;20100;-67
2021/11/24 06:31:30;;;;;;;10.15;7.10;;;5.30;78.60;;;;;;5009352;28;20084;-68
2021/11/24 06:33:56;;;;;;;12.93;7.88;;;5.30;78.90;;;;;;5009945;28;20072;-68
2021/11/24 06:36:24;;;;;;;11.43;7.25;;;5.30;78.90;;;;;;5009861;28;20033;-68
2021/11/24 06:38:50;;;;;;;11.93;8.00;;;5.30;79.20;;;;;;5013700;28;20104;-68
2021/11/24 06:41:16;;;;;;;10.00;6.88;;;5.30;79.00;;;;;;5009735;28;20030;-68
2021/11/24 06:43:42;;;;;;;12.48;7.43;;;5.30;79.80;;;;;;5009714;28;20032;-68
2021/11/24 06:46:08;;;;;;;12.43;8.15;;;5.30;79.80;;;;;;5009523;28;20038;-68
2021/11/24 06:48:34;;;;;;;10.35;7.28;;;5.30;80.60;;;;;;5010238;28;20025;-68
2021/11/24 06:51:00;;;;;;;12.50;7.68;;;5.30;79.50;;;;;;5014369;28;20034;-67
2021/11/24 06:53:26;;;;;;;13.13;7.95;;;5.30;79.40;;;;;;4990484;28;20038;-67
2021/11/24 06:55:52;;;;;;;12.13;7.20;;;5.30;79.70;;;;;;5006030;28;20026;-67
2021/11/24 06:58:17;;;;;;;13.50;8.15;;;5.20;79.80;;;;;;4992084;28;20026;-69
2021/11/24 07:00:43;;;;;;;13.07;7.95;;;5.20;79.70;;;;;;5014629;28;20049;-69
2021/11/24 07:03:09;;;;;;;12.23;8.30;;;5.30;79.70;;;;;;5013294;28;20454;-69
2021/11/24 07:05:34;;;;;;;11.93;7.43;;;5.30;79.50;;;;;;5012809;28;20034;-69
2021/11/24 07:08:00;;;;;;;13.55;8.50;;;5.30;79.70;;;;;;5010294;28;20085;-69
2021/11/24 07:10:26;;;;;;;12.68;8.18;;;5.30;79.40;;;;;;5008952;28;20502;-70
2021/11/24 07:12:52;;;;;;;12.15;8.38;;;5.30;79.30;;;;;;5009190;28;20042;-70
2021/11/24 07:15:18;;;;;;;10.93;7.57;;;5.30;79.30;;;;;;5009844;28;20030;-68
2021/11/24 07:17:43;;;;;;;11.50;7.90;;;5.30;79.50;;;;;;5012650;28;20026;-68
2021/11/24 07:20:09;;;;;;;11.82;8.02;;;5.30;79.00;;;;;;5007914;28;20050;-69
2021/11/24 07:22:35;;;;;;;12.10;8.00;;;5.20;79.30;;;;;;5008724;28;20034;-68
2021/11/24 07:25:01;;;;;;;12.95;8.52;;;5.20;79.60;;;;;;5012012;28;20108;-67
2021/11/24 07:27:27;;;;;;;12.52;7.70;;;5.20;79.70;;;;;;5008692;28;20097;-69
2021/11/24 07:29:52;;;;;;;11.90;7.75;;;5.20;79.20;;;;;;5020805;28;20029;-68
2021/11/24 07:32:18;;;;;;;11.68;7.80;;;5.20;79.80;;;;;;5010482;28;20030;-68
2021/11/24 07:34:44;;;;;;;12.82;8.40;;;5.20;79.20;;;;;;5009110;28;20026;-68
2021/11/24 07:37:10;;;;;;;13.80;8.45;;;5.10;79.60;;;;;;5009473;28;20087;-68
2021/11/24 07:39:35;;;;;;;12.55;8.80;;;5.20;79.90;;;;;;5021445;28;20117;-68
2021/11/24 07:42:01;;;;;;;11.18;7.63;;;5.20;79.80;;;;;;5008222;28;20029;-68
2021/11/24 07:44:27;;;;;;;12.43;8.02;;;5.30;80.10;;;;;;4994313;28;20430;-68
2021/11/24 07:46:52;;;;;;;11.32;7.45;;;5.40;79.70;;;;;;5008001;28;20123;-69
2021/11/24 07:49:18;;;;;;;11.23;7.57;;;5.50;80.00;;;;;;5010083;28;20022;-66
2021/11/24 07:51:44;;;;;;;12.75;8.43;;;5.70;79.70;;;;;;5004175;28;20156;-67
2021/11/24 07:54:10;;;;;;;14.02;8.68;;;5.90;79.30;;;;;;5009690;28;20364;-66
2021/11/24 07:56:35;;;;;;;15.15;8.45;;;6.00;79.20;;;;;;5010796;28;20030;-66
2021/11/24 07:59:01;;;;;;;12.73;8.75;;;6.10;79.00;;;;;;5007918;28;20029;-68
2021/11/24 08:01:27;;;;;;;12.05;8.27;;;6.30;78.90;;;;;;5011295;28;20045;-66
2021/11/24 08:03:52;;;;;;;13.10;7.93;;;6.50;78.70;;;;;;5008326;28;20529;-66
2021/11/24 08:06:18;;;;;;;12.43;8.25;;;6.70;78.40;;;;;;5008511;28;20045;-66
2021/11/24 08:08:44;;;;;;;11.90;8.93;;;6.80;78.10;;;;;;5011085;28;20025;-66
2021/11/24 08:11:09;;;;;;;12.07;8.18;;;7.10;77.90;;;;;;5008247;28;20034;-67
2021/11/24 08:13:35;;;;;;;14.05;8.57;;;7.30;77.50;;;;;;5008454;28;20076;-67
2021/11/24 08:16:01;;;;;;;13.90;8.65;;;7.60;77.20;;;;;;5006962;28;20029;-69
2021/11/24 08:18:26;;;;;;;13.75;8.88;;;7.70;76.30;;;;;;5006136;28;20027;-68
2021/11/24 08:20:52;;;;;;;12.38;8.18;;;8.00;76.30;;;;;;5010451;28;20029;-69
2021/11/24 08:23:18;;;;;;;13.75;8.55;;;8.30;76.10;;;;;;5009355;28;20072;-68
2021/11/24 08:25:43;;;;;;;13.07;9.15;;;8.50;75.20;;;;;;5009920;28;20084;-68
2021/11/24 08:28:09;;;;;;;12.85;8.82;;;8.70;74.50;;;;;;5009060;28;20022;-68
2021/11/24 08:30:35;;;;;;;12.25;8.38;;;8.90;74.00;;;;;;5010332;28;20038;-68
2021/11/24 08:33:01;;;;;;;12.70;8.98;;;9.10;73.70;;;;;;5010850;28;20024;-68
2021/11/24 08:35:27;;;;;;;13.88;8.95;;;9.30;73.70;;;;;;5010156;28;20105;-69
2021/11/24 08:37:53;;;;;;;16.23;10.35;;;9.60;73.10;;;;;;5007912;28;20026;-69
2021/11/24 08:40:19;;;;;;;13.48;9.32;;;9.80;72.20;;;;;;5007907;28;20030;-69
2021/11/24 08:42:45;;;;;;;13.77;9.88;;;9.90;71.70;;;;;;4997134;28;20100;-69
2021/11/24 08:45:11;;;;;;;14.48;9.98;;;10.20;71.00;;;;;;5009426;28;20037;-69
2021/11/24 08:47:39;;;;;;;14.60;9.02;;;10.40;70.40;;;;;;5010272;28;20056;-69
2021/11/24 08:50:06;;;;;;;13.48;9.35;;;10.50;70.00;;;;;;4990396;28;20128;-69
2021/11/24 08:52:32;;;;;;;13.10;9.65;;;10.70;69.30;;;;;;5007853;28;20100;-69
2021/11/24 08:54:58;;;;;;;13.55;8.98;;;10.80;69.10;;;;;;5011252;28;20081;-69
2021/11/24 08:57:23;;;;;;;14.63;10.52;;;11.10;68.90;;;;;;5011336;28;20034;-69
2021/11/24 08:59:50;;;;;;;13.68;10.15;;;11.30;68.00;;;;;;5015300;28;20033;-67
2021/11/24 09:02:16;;;;;;;11.93;9.73;;;11.50;67.30;;;;;;5014668;28;20037;-67
2021/11/24 09:04:41;;;;;;;14.02;9.98;;;11.60;66.50;;;;;;4994117;28;20026;-67
2021/11/24 09:07:08;;;;;;;14.85;10.57;;;11.80;66.70;;;;;;4993619;28;20049;-68
2021/11/24 09:09:35;;;;;;;14.23;10.13;;;12.00;65.80;;;;;;5011300;28;20036;-67
2021/11/24 09:12:01;;;;;;;13.95;10.02;;;12.10;66.10;;;;;;5013388;28;20084;-67
2021/11/24 09:14:27;;;;;;;13.90;10.57;;;12.30;65.50;;;;;;5012410;28;20383;-68
2021/11/24 09:16:52;;;;;;;14.63;10.68;;;12.50;64.70;;;;;;5011387;28;20025;-67
2021/11/24 09:19:18;;;;;;;15.65;10.73;;;12.70;64.60;;;;;;5011229;28;20026;-68
2021/11/24 09:21:44;;;;;;;13.90;9.75;;;12.80;63.20;;;;;;5010411;28;20490;-70
2021/11/24 09:24:15;;;;;;;13.32;9.90;;;13.00;62.60;;;;;;5012674;28;20087;-70
2021/11/24 09:26:43;;;;;;;13.13;9.70;;;12.80;61.70;;;;;;5013610;28;20072;-67
2021/11/24 09:29:10;;;;;;;14.15;10.27;;;12.60;62.40;;;;;;5008551;28;20049;-66
2021/11/24 09:31:37;;;;;;;14.52;10.30;;;12.60;62.50;;;;;;5022605;28;20030;-67
2021/11/24 09:34:03;;;;;;;12.02;8.95;;;12.60;62.40;;;;;;5016335;28;20029;-67
2021/11/24 09:36:28;;;;;;;13.98;9.82;;;12.70;62.20;;;;;;5019969;28;20026;-67
2021/11/24 09:38:55;;;;;;;13.13;9.30;;;12.80;62.10;;;;;;5012414;28;20022;-68
2021/11/24 09:41:25;;;;;;;11.45;8.98;;;13.00;62.00;;;;;;5010753;28;20030;-65
2021/11/24 09:43:53;;;;;;;11.88;9.15;;;13.00;61.50;;;;;;5010499;28;20053;-65
2021/11/24 09:46:19;;;;;;;13.07;9.65;;;13.10;61.00;;;;;;5012103;28;20049;-65
2021/11/24 09:48:48;;;;;;;12.23;9.20;;;13.20;61.30;;;;;;5010433;28;20628;-65
2021/11/24 09:51:14;;;;;;;13.63;10.40;;;13.40;61.10;;;;;;5006947;28;20513;-68
2021/11/24 09:53:42;;;;;;;12.93;9.38;;;13.40;61.00;;;;;;5019808;28;20505;-68
2021/11/24 09:56:08;;;;;;;13.20;10.02;;;13.50;60.20;;;;;;5011705;28;20018;-69
2021/11/24 09:58:34;;;;;;;13.07;9.27;;;13.60;60.40;;;;;;4991699;28;20116;-68
2021/11/24 10:01:00;;;;;;;14.85;10.25;;;13.70;60.10;;;;;;5013261;28;20026;-69
2021/11/24 10:03:26;;;;;;;12.50;10.00;;;13.90;60.40;;;;;;5009003;28;20014;-69
2021/11/24 10:05:53;;;;;;;12.57;8.98;;;13.90;60.00;;;;;;5012011;28;20457;-69
2021/11/24 10:08:19;;;;;;;13.55;10.23;;;14.10;59.90;;;;;;4992710;28;20088;-69
2021/11/24 10:10:45;;;;;;;12.13;9.05;;;14.20;59.70;;;;;;5009487;28;20030;-68
2021/11/24 10:13:11;;;;;;;12.68;8.95;;;14.40;59.40;;;;;;5009837;28;20033;-66
2021/11/24 10:15:41;;;;;;;11.35;8.98;;;14.70;59.90;;;;;;5010323;28;20027;-65
2021/11/24 10:18:14;;;;;;;13.68;10.18;;;14.70;58.50;;;;;;5011676;28;20033;-67
2021/11/24 10:21:11;;;;;;;12.63;9.57;;;14.80;59.10;;;;;;5012558;28;20028;-66
2021/11/24 10:23:40;;;;;;;11.90;9.48;;;14.80;59.50;;;;;;5012180;28;20101;-67
2021/11/24 10:26:16;;;;;;;12.27;9.13;;;15.10;58.30;;;;;;4995126;28;20048;-66
2021/11/24 10:28:50;;;;;;;11.50;8.75;;;15.10;58.00;;;;;;5009482;28;20026;-65
2021/11/24 10:31:24;;;;;;;10.80;7.97;;;15.10;57.70;;;;;;5009903;28;20104;-64
2021/11/24 10:33:50;;;;;;;10.88;8.45;;;15.20;58.30;;;;;;5009876;28;20033;-66
2021/11/24 10:36:17;;;;;;;11.30;8.35;;;15.30;57.40;;;;;;4993315;28;20022;-63
2021/11/24 10:38:46;;;;;;;12.48;9.50;;;15.40;57.20;;;;;;5012746;28;20053;-64
2021/11/24 10:41:23;;;;;;;10.75;8.65;;;15.50;57.00;;;;;;5005058;28;20099;-64
2021/11/24 10:43:49;;;;;;;10.07;7.75;;;15.70;57.00;;;;;;5011760;28;20052;-64
2021/11/24 10:46:17;;;;;;;11.00;8.13;;;15.70;56.80;;;;;;5017196;28;20037;-65
2021/11/24 10:48:43;;;;;;;10.48;8.40;;;15.80;55.80;;;;;;4995770;28;20030;-64
2021/11/24 10:51:31;;;;;;;9.82;8.30;;;15.90;56.00;;;;;;5011011;28;20040;-64
2021/11/24 10:54:18;;;;;;;9.32;7.07;;;16.10;56.80;;;;;;4988907;28;20038;-65
2021/11/24 10:56:58;;;;;;;11.30;7.97;;;16.00;55.30;;;;;;5012031;28;20034;-63
2021/11/24 10:59:23;;;;;;;9.65;7.95;;;16.10;55.60;;;;;;5010530;28;20461;-64
2021/11/24 11:01:49;;;;;;;9.90;7.65;;;16.30;54.40;;;;;;5010645;28;20097;-64
2021/11/24 11:04:14;;;;;;;11.63;7.97;;;16.50;54.80;;;;;;4991524;28;20037;-65
2021/11/24 11:06:41;;;;;;;10.48;8.25;;;16.50;53.70;;;;;;5008712;28;20054;-65
2021/11/24 11:09:08;;;;;;;8.82;7.68;;;16.60;53.40;;;;;;5011102;28;20019;-64
2021/11/24 11:11:37;;;;;;;9.50;7.40;;;16.70;53.20;;;;;;4985172;28;20033;-67
2021/11/24 11:14:12;;;;;;;9.32;7.63;;;16.70;51.60;;;;;;5015755;28;20017;-69
2021/11/24 11:16:56;;;;;;;9.63;7.68;;;16.70;53.00;;;;;;4989301;28;20036;-67
2021/11/24 11:19:42;;;;;;;9.95;7.57;;;16.90;54.10;;;;;;5008366;28;20456;-68
2021/11/24 11:22:10;;;;;;;8.80;7.32;;;17.00;52.80;;;;;;4999000;28;20025;-67
2021/11/24 11:24:36;;;;;;;8.60;6.82;;;17.00;51.50;;;;;;4992674;28;20045;-68
2021/11/24 11:27:02;;;;;;;9.65;7.25;;;17.20;52.30;;;;;;5008467;28;20494;-67
2021/11/24 11:29:29;;;;;;;9.88;8.10;;;17.40;50.40;;;;;;5014542;28;20026;-67
2021/11/24 11:31:55;;;;;;;7.57;6.63;;;17.30;49.60;;;;;;4990482;28;20165;-67
2021/11/24 11:34:21;;;;;;;9.73;7.30;;;17.50;50.20;;;;;;5010659;28;20487;-68
2021/11/24 11:36:48;;;;;;;8.95;7.13;;;17.60;49.70;;;;;;4988771;28;20120;-68
2021/11/24 11:39:14;;;;;;;9.95;7.35;;;17.60;49.20;;;;;;5005139;28;20033;-69
2021/11/24 11:41:42;;;;;;;8.65;6.95;;;17.70;49.30;;;;;;5011178;28;20026;-69
2021/11/24 11:44:13;;;;;;;9.68;7.38;;;17.80;48.70;;;;;;5008478;28;20375;-68
2021/11/24 11:46:43;;;;;;;8.27;6.97;;;18.00;48.80;;;;;;4999719;28;20486;-68
2021/11/24 11:49:12;;;;;;;8.85;6.32;;;18.10;48.80;;;;;;5005126;28;20021;-69
2021/11/24 11:51:39;;;;;;;9.27;7.43;;;18.20;48.20;;;;;;5009596;28;20050;-68
2021/11/24 11:54:07;;;;;;;7.35;6.57;;;18.20;47.90;;;;;;5009081;28;20061;-68
2021/11/24 11:56:44;;;;;;;8.82;6.70;;;18.30;47.30;;;;;;5010075;28;20034;-68
2021/11/24 11:59:21;;;;;;;9.45;7.55;;;18.40;49.00;;;;;;5007758;28;20529;-68
2021/11/24 12:01:47;;;;;;;8.27;6.50;;;18.40;48.90;;;;;;5016453;28;20160;-68
2021/11/24 12:04:22;;;;;;;8.98;7.47;;;18.60;48.60;;;;;;5016899;28;20113;-68
2021/11/24 12:06:53;;;;;;;8.05;7.20;;;18.70;48.20;;;;;;5008431;28;20511;-66
2021/11/24 12:09:24;;;;;;;8.05;6.68;;;18.90;47.20;;;;;;5024989;28;20037;-67
2021/11/24 12:12:05;;;;;;;9.70;8.02;;;18.90;47.20;;;;;;5008053;28;20198;-66
2021/11/24 12:14:55;;;;;;;7.78;6.82;;;18.60;47.40;;;;;;5011345;28;20042;-71
2021/11/24 12:17:32;;;;;;;10.25;8.30;;;18.40;47.20;;;;;;5009151;28;20034;-72
2021/11/24 12:20:29;;;;;;;10.32;8.15;;;18.20;47.20;;;;;;5014218;28;20438;-66
2021/11/24 12:22:59;;;;;;;9.70;7.03;;;18.20;47.00;;;;;;4998849;28;20022;-66
2021/11/24 12:25:28;;;;;;;9.75;7.10;;;18.30;47.70;;;;;;5001043;28;20109;-67
2021/11/24 12:27:54;;;;;;;11.02;7.70;;;18.50;47.40;;;;;;5003769;28;20022;-67
2021/11/24 12:33:09;;;;;;;9.20;7.22;;;18.50;49.50;;;;;;5008190;28;20034;-68
2021/11/24 12:35:37;;;;;;;9.38;7.55;;;19.20;47.40;;;;;;4994363;28;20534;-68
2021/11/24 12:38:05;;;;;;;9.82;7.22;;;19.70;45.40;;;;;;5011303;28;20109;-68
2021/11/24 12:40:39;;;;;;;10.75;7.53;;;19.60;44.70;;;;;;5013501;28;20439;-67
2021/11/24 12:43:09;;;;;;;9.95;7.85;;;19.10;45.70;;;;;;5013153;28;20030;-66
2021/11/24 12:45:36;;;;;;;10.40;7.68;;;19.80;45.10;;;;;;5013134;28;20022;-67
2021/11/24 12:48:07;;;;;;;10.48;7.35;;;20.70;43.90;;;;;;5013659;28;20437;-69
2021/11/24 12:50:34;;;;;;;9.57;7.22;;;20.40;42.80;;;;;;4995755;28;20018;-70
2021/11/24 12:53:05;;;;;;;9.05;7.50;;;19.80;43.00;;;;;;5011082;28;20026;-68